sensor_id;sensor_type;location;lat;lon;timestamp;temperature;humidity
1221;DHT22;600;48.044;7.878;2022-08-03T00:01:24;23.80;90.80
1221;DHT22;600;48.044;7.878;2022-08-03T00:03:50;23.70;90.90
1221;DHT22;600;48.044;7.878;2022-08-03T00:06:18;23.70;91.10
1221;DHT22;600;48.044;7.878;2022-08-03T00:08:45;23.70;91.30
1221;DHT22;600;48.044;7.878;2022-08-03T00:11:12;23.60;91.40
1221;DHT22;600;48.044;7.878;2022-08-03T00:13:39;23.60;91.60
1221;DHT22;600;48.044;7.878;2022-08-03T00:16:05;23.50;91.70
1221;DHT22;600;48.044;7.878;2022-08-03T00:18:33;23.50;91.80
1221;DHT22;600;48.044;7.878;2022-08-03T00:20:59;23.50;91.90
1221;DHT22;600;48.044;7.878;2022-08-03T00:23:27;23.50;91.70
1221;DHT22;600;48.044;7.878;2022-08-03T00:25:54;23.40;92.10
1221;DHT22;600;48.044;7.878;2022-08-03T00:28:21;23.40;92.10
1221;DHT22;600;48.044;7.878;2022-08-03T00:30:48;23.40;92.10
1221;DHT22;600;48.044;7.878;2022-08-03T00:33:15;23.40;92.00
1221;DHT22;600;48.044;7.878;2022-08-03T00:35:42;23.40;92.00
1221;DHT22;600;48.044;7.878;2022-08-03T00:38:09;23.40;92.30
1221;DHT22;600;48.044;7.878;2022-08-03T00:40:37;23.30;92.20
1221;DHT22;600;48.044;7.878;2022-08-03T00:43:05;23.30;92.30
1221;DHT22;600;48.044;7.878;2022-08-03T00:45:34;23.30;92.20
1221;DHT22;600;48.044;7.878;2022-08-03T00:48:01;23.20;92.00
1221;DHT22;600;48.044;7.878;2022-08-03T00:50:30;23.10;92.00
1221;DHT22;600;48.044;7.878;2022-08-03T00:52:59;23.10;91.90
1221;DHT22;600;48.044;7.878;2022-08-03T00:55:27;23.10;91.70
1221;DHT22;600;48.044;7.878;2022-08-03T00:57:56;23.10;91.70
1221;DHT22;600;48.044;7.878;2022-08-03T01:00:25;23.10;91.50
1221;DHT22;600;48.044;7.878;2022-08-03T01:02:53;23.00;91.80
1221;DHT22;600;48.044;7.878;2022-08-03T01:05:20;23.00;92.10
1221;DHT22;600;48.044;7.878;2022-08-03T01:07:57;23.00;92.20
1221;DHT22;600;48.044;7.878;2022-08-03T01:10:33;22.90;92.10
1221;DHT22;600;48.044;7.878;2022-08-03T01:13:18;22.90;92.80
1221;DHT22;600;48.044;7.878;2022-08-03T01:15:52;22.90;92.60
1221;DHT22;600;48.044;7.878;2022-08-03T01:18:28;22.80;92.50
1221;DHT22;600;48.044;7.878;2022-08-03T01:20:57;22.90;93.20
1221;DHT22;600;48.044;7.878;2022-08-03T01:23:36;22.80;93.40
1221;DHT22;600;48.044;7.878;2022-08-03T01:26:21;22.80;93.90
1221;DHT22;600;48.044;7.878;2022-08-03T01:29:05;22.80;93.70
1221;DHT22;600;48.044;7.878;2022-08-03T01:31:39;22.80;94.10
1221;DHT22;600;48.044;7.878;2022-08-03T01:34:09;22.80;94.30
1221;DHT22;600;48.044;7.878;2022-08-03T01:36:40;22.80;94.60
1221;DHT22;600;48.044;7.878;2022-08-03T01:39:09;22.80;94.70
1221;DHT22;600;48.044;7.878;2022-08-03T01:41:41;22.80;95.00
1221;DHT22;600;48.044;7.878;2022-08-03T01:44:10;22.80;95.40
1221;DHT22;600;48.044;7.878;2022-08-03T01:46:39;22.80;95.30
1221;DHT22;600;48.044;7.878;2022-08-03T01:49:09;22.70;95.30
1221;DHT22;600;48.044;7.878;2022-08-03T01:51:37;22.70;94.60
1221;DHT22;600;48.044;7.878;2022-08-03T01:54:08;22.70;94.70
1221;DHT22;600;48.044;7.878;2022-08-03T01:56:35;22.60;94.60
1221;DHT22;600;48.044;7.878;2022-08-03T01:59:04;22.60;95.10
1221;DHT22;600;48.044;7.878;2022-08-03T02:01:33;22.60;95.00
1221;DHT22;600;48.044;7.878;2022-08-03T02:04:04;22.60;95.00
1221;DHT22;600;48.044;7.878;2022-08-03T02:06:33;22.60;95.10
1221;DHT22;600;48.044;7.878;2022-08-03T02:09:02;22.60;95.20
1221;DHT22;600;48.044;7.878;2022-08-03T02:11:30;22.60;95.20
1221;DHT22;600;48.044;7.878;2022-08-03T02:14:00;22.60;95.30
1221;DHT22;600;48.044;7.878;2022-08-03T02:16:30;22.50;95.60
1221;DHT22;600;48.044;7.878;2022-08-03T02:18:59;22.60;95.40
1221;DHT22;600;48.044;7.878;2022-08-03T02:21:29;22.50;95.40
1221;DHT22;600;48.044;7.878;2022-08-03T02:23:57;22.50;95.40
1221;DHT22;600;48.044;7.878;2022-08-03T02:26:28;22.50;95.50
1221;DHT22;600;48.044;7.878;2022-08-03T02:28:58;22.50;95.60
1221;DHT22;600;48.044;7.878;2022-08-03T02:31:30;22.50;95.80
1221;DHT22;600;48.044;7.878;2022-08-03T02:34:01;22.50;95.80
1221;DHT22;600;48.044;7.878;2022-08-03T02:36:32;22.50;95.80
1221;DHT22;600;48.044;7.878;2022-08-03T02:39:00;22.50;95.90
1221;DHT22;600;48.044;7.878;2022-08-03T02:41:30;22.50;95.90
1221;DHT22;600;48.044;7.878;2022-08-03T02:44:00;22.40;96.00
1221;DHT22;600;48.044;7.878;2022-08-03T02:46:30;22.40;96.00
1221;DHT22;600;48.044;7.878;2022-08-03T02:48:59;22.40;96.00
1221;DHT22;600;48.044;7.878;2022-08-03T02:51:31;22.30;95.80
1221;DHT22;600;48.044;7.878;2022-08-03T02:53:59;22.30;96.10
1221;DHT22;600;48.044;7.878;2022-08-03T02:56:27;22.30;95.60
1221;DHT22;600;48.044;7.878;2022-08-03T02:58:55;22.30;95.60
1221;DHT22;600;48.044;7.878;2022-08-03T03:01:24;22.20;95.70
1221;DHT22;600;48.044;7.878;2022-08-03T03:03:54;22.30;95.80
1221;DHT22;600;48.044;7.878;2022-08-03T03:06:22;22.20;95.90
1221;DHT22;600;48.044;7.878;2022-08-03T03:08:51;22.20;95.90
1221;DHT22;600;48.044;7.878;2022-08-03T03:11:20;22.20;96.20
1221;DHT22;600;48.044;7.878;2022-08-03T03:13:48;22.20;96.40
1221;DHT22;600;48.044;7.878;2022-08-03T03:16:15;22.20;96.50
1221;DHT22;600;48.044;7.878;2022-08-03T03:18:44;22.10;96.80
1221;DHT22;600;48.044;7.878;2022-08-03T03:21:15;22.10;97.00
1221;DHT22;600;48.044;7.878;2022-08-03T03:23:43;22.10;97.20
1221;DHT22;600;48.044;7.878;2022-08-03T03:26:12;22.10;97.60
1221;DHT22;600;48.044;7.878;2022-08-03T03:28:40;22.10;97.60
1221;DHT22;600;48.044;7.878;2022-08-03T03:31:07;22.10;97.70
1221;DHT22;600;48.044;7.878;2022-08-03T03:33:35;22.10;98.00
1221;DHT22;600;48.044;7.878;2022-08-03T03:36:03;22.10;98.20
1221;DHT22;600;48.044;7.878;2022-08-03T03:38:31;22.10;98.50
1221;DHT22;600;48.044;7.878;2022-08-03T03:40:58;22.10;98.90
1221;DHT22;600;48.044;7.878;2022-08-03T03:43:26;22.00;99.00
1221;DHT22;600;48.044;7.878;2022-08-03T03:45:54;22.00;99.10
1221;DHT22;600;48.044;7.878;2022-08-03T03:48:21;22.00;99.30
1221;DHT22;600;48.044;7.878;2022-08-03T03:50:49;21.90;99.30
1221;DHT22;600;48.044;7.878;2022-08-03T03:53:16;21.90;99.70
1221;DHT22;600;48.044;7.878;2022-08-03T03:55:43;21.90;99.90
1221;DHT22;600;48.044;7.878;2022-08-03T03:58:10;21.90;99.90
1221;DHT22;600;48.044;7.878;2022-08-03T04:00:38;21.90;99.80
1221;DHT22;600;48.044;7.878;2022-08-03T04:03:04;21.80;99.40
1221;DHT22;600;48.044;7.878;2022-08-03T04:05:31;21.70;99.50
1221;DHT22;600;48.044;7.878;2022-08-03T04:08:16;21.70;99.60
1221;DHT22;600;48.044;7.878;2022-08-03T04:11:12;21.70;99.70
1221;DHT22;600;48.044;7.878;2022-08-03T04:13:43;21.70;99.90
1221;DHT22;600;48.044;7.878;2022-08-03T04:16:16;21.70;99.90
1221;DHT22;600;48.044;7.878;2022-08-03T04:18:46;21.70;99.90
1221;DHT22;600;48.044;7.878;2022-08-03T04:21:15;21.70;99.90
1221;DHT22;600;48.044;7.878;2022-08-03T04:23:47;21.60;99.90
1221;DHT22;600;48.044;7.878;2022-08-03T04:26:17;21.60;99.90
1221;DHT22;600;48.044;7.878;2022-08-03T04:28:46;21.50;99.90
1221;DHT22;600;48.044;7.878;2022-08-03T04:31:17;21.50;99.90
1221;DHT22;600;48.044;7.878;2022-08-03T04:33:46;21.50;99.90
1221;DHT22;600;48.044;7.878;2022-08-03T04:36:21;21.50;99.90
1221;DHT22;600;48.044;7.878;2022-08-03T04:38:54;21.50;99.90
1221;DHT22;600;48.044;7.878;2022-08-03T04:41:24;21.60;99.90
1221;DHT22;600;48.044;7.878;2022-08-03T04:43:53;21.60;99.90
1221;DHT22;600;48.044;7.878;2022-08-03T04:46:24;21.70;99.90
1221;DHT22;600;48.044;7.878;2022-08-03T04:48:52;21.70;99.90
1221;DHT22;600;48.044;7.878;2022-08-03T04:51:19;21.80;99.90
1221;DHT22;600;48.044;7.878;2022-08-03T04:53:45;21.80;99.90
1221;DHT22;600;48.044;7.878;2022-08-03T04:56:12;21.80;99.90
1221;DHT22;600;48.044;7.878;2022-08-03T04:58:39;21.90;99.90
1221;DHT22;600;48.044;7.878;2022-08-03T05:01:05;21.90;99.90
1221;DHT22;600;48.044;7.878;2022-08-03T05:03:34;22.00;99.90
1221;DHT22;600;48.044;7.878;2022-08-03T05:06:01;22.00;99.90
1221;DHT22;600;48.044;7.878;2022-08-03T05:08:28;22.00;99.90
1221;DHT22;600;48.044;7.878;2022-08-03T05:10:54;22.00;99.90
1221;DHT22;600;48.044;7.878;2022-08-03T05:13:21;22.10;99.90
1221;DHT22;600;48.044;7.878;2022-08-03T05:15:48;22.10;99.90
1221;DHT22;600;48.044;7.878;2022-08-03T05:18:15;22.10;99.90
1221;DHT22;600;48.044;7.878;2022-08-03T05:20:43;22.10;99.90
1221;DHT22;600;48.044;7.878;2022-08-03T05:23:10;22.10;99.90
1221;DHT22;600;48.044;7.878;2022-08-03T05:25:36;22.10;99.90
1221;DHT22;600;48.044;7.878;2022-08-03T05:28:03;22.00;99.90
1221;DHT22;600;48.044;7.878;2022-08-03T05:30:30;22.00;99.90
1221;DHT22;600;48.044;7.878;2022-08-03T05:32:57;22.00;99.90
1221;DHT22;600;48.044;7.878;2022-08-03T05:35:24;22.10;99.90
1221;DHT22;600;48.044;7.878;2022-08-03T05:37:53;22.10;99.90
1221;DHT22;600;48.044;7.878;2022-08-03T05:40:20;22.10;99.90
1221;DHT22;600;48.044;7.878;2022-08-03T05:42:46;22.20;99.90
1221;DHT22;600;48.044;7.878;2022-08-03T05:45:14;22.20;99.90
1221;DHT22;600;48.044;7.878;2022-08-03T05:47:42;22.20;99.90
1221;DHT22;600;48.044;7.878;2022-08-03T05:50:09;22.30;99.90
1221;DHT22;600;48.044;7.878;2022-08-03T05:52:36;22.30;99.90
1221;DHT22;600;48.044;7.878;2022-08-03T05:55:05;22.30;99.90
1221;DHT22;600;48.044;7.878;2022-08-03T05:57:32;22.40;99.90
1221;DHT22;600;48.044;7.878;2022-08-03T06:00:00;22.40;99.90
1221;DHT22;600;48.044;7.878;2022-08-03T06:02:27;22.40;99.90
1221;DHT22;600;48.044;7.878;2022-08-03T06:04:54;22.50;99.90
1221;DHT22;600;48.044;7.878;2022-08-03T06:07:20;22.50;99.90
1221;DHT22;600;48.044;7.878;2022-08-03T06:09:47;22.50;99.90
1221;DHT22;600;48.044;7.878;2022-08-03T06:12:15;22.50;99.90
1221;DHT22;600;48.044;7.878;2022-08-03T06:14:42;22.50;99.90
1221;DHT22;600;48.044;7.878;2022-08-03T06:17:09;22.50;99.90
1221;DHT22;600;48.044;7.878;2022-08-03T06:23:11;22.50;99.90
1221;DHT22;600;48.044;7.878;2022-08-03T06:25:38;22.50;99.90
1221;DHT22;600;48.044;7.878;2022-08-03T06:28:06;22.50;99.90
1221;DHT22;600;48.044;7.878;2022-08-03T06:30:33;22.50;99.90
1221;DHT22;600;48.044;7.878;2022-08-03T06:33:08;22.50;99.90
1221;DHT22;600;48.044;7.878;2022-08-03T06:35:35;22.50;99.90
1221;DHT22;600;48.044;7.878;2022-08-03T06:38:02;22.50;99.90
1221;DHT22;600;48.044;7.878;2022-08-03T06:40:28;22.50;99.90
1221;DHT22;600;48.044;7.878;2022-08-03T06:42:55;22.60;99.90
1221;DHT22;600;48.044;7.878;2022-08-03T06:45:24;22.60;99.90
1221;DHT22;600;48.044;7.878;2022-08-03T06:47:59;22.60;99.90
1221;DHT22;600;48.044;7.878;2022-08-03T06:50:27;22.70;99.90
1221;DHT22;600;48.044;7.878;2022-08-03T06:52:54;22.70;99.90
1221;DHT22;600;48.044;7.878;2022-08-03T06:55:20;22.70;99.90
1221;DHT22;600;48.044;7.878;2022-08-03T06:57:47;22.80;99.90
1221;DHT22;600;48.044;7.878;2022-08-03T07:00:14;22.80;99.90
1221;DHT22;600;48.044;7.878;2022-08-03T07:02:42;22.80;99.90
1221;DHT22;600;48.044;7.878;2022-08-03T07:05:10;22.90;99.90
1221;DHT22;600;48.044;7.878;2022-08-03T07:07:38;22.90;99.90
1221;DHT22;600;48.044;7.878;2022-08-03T07:10:06;23.00;99.90
1221;DHT22;600;48.044;7.878;2022-08-03T07:12:33;23.10;99.90
1221;DHT22;600;48.044;7.878;2022-08-03T07:15:01;23.10;99.90
1221;DHT22;600;48.044;7.878;2022-08-03T07:17:29;23.10;99.90
1221;DHT22;600;48.044;7.878;2022-08-03T07:19:57;23.20;99.90
1221;DHT22;600;48.044;7.878;2022-08-03T07:22:24;23.30;99.90
1221;DHT22;600;48.044;7.878;2022-08-03T07:24:51;23.30;99.90
1221;DHT22;600;48.044;7.878;2022-08-03T07:27:17;23.40;99.90
1221;DHT22;600;48.044;7.878;2022-08-03T07:29:44;23.50;99.90
1221;DHT22;600;48.044;7.878;2022-08-03T07:32:14;23.60;99.90
1221;DHT22;600;48.044;7.878;2022-08-03T07:34:43;23.70;99.90
1221;DHT22;600;48.044;7.878;2022-08-03T07:37:11;23.80;99.90
1221;DHT22;600;48.044;7.878;2022-08-03T07:39:38;23.80;99.90
1221;DHT22;600;48.044;7.878;2022-08-03T07:45:26;24.00;99.90
1221;DHT22;600;48.044;7.878;2022-08-03T07:47:53;24.10;99.90
1221;DHT22;600;48.044;7.878;2022-08-03T07:50:20;24.10;99.90
1221;DHT22;600;48.044;7.878;2022-08-03T07:52:49;24.10;99.90
1221;DHT22;600;48.044;7.878;2022-08-03T07:55:19;24.20;99.90
1221;DHT22;600;48.044;7.878;2022-08-03T07:57:46;24.20;99.90
1221;DHT22;600;48.044;7.878;2022-08-03T08:00:14;24.30;99.90
1221;DHT22;600;48.044;7.878;2022-08-03T08:02:42;24.30;99.90
1221;DHT22;600;48.044;7.878;2022-08-03T08:05:09;24.30;99.90
1221;DHT22;600;48.044;7.878;2022-08-03T08:07:37;24.30;99.90
1221;DHT22;600;48.044;7.878;2022-08-03T08:10:06;24.40;99.90
1221;DHT22;600;48.044;7.878;2022-08-03T08:12:34;24.40;99.90
1221;DHT22;600;48.044;7.878;2022-08-03T08:15:01;24.40;99.90
1221;DHT22;600;48.044;7.878;2022-08-03T08:17:28;24.50;99.90
1221;DHT22;600;48.044;7.878;2022-08-03T08:19:55;24.60;99.90
1221;DHT22;600;48.044;7.878;2022-08-03T08:22:22;24.60;99.90
1221;DHT22;600;48.044;7.878;2022-08-03T08:24:48;24.60;99.90
1221;DHT22;600;48.044;7.878;2022-08-03T08:27:17;24.70;99.90
1221;DHT22;600;48.044;7.878;2022-08-03T08:29:43;24.80;99.90
1221;DHT22;600;48.044;7.878;2022-08-03T08:32:14;24.80;99.90
1221;DHT22;600;48.044;7.878;2022-08-03T08:34:41;24.90;99.90
1221;DHT22;600;48.044;7.878;2022-08-03T08:37:07;24.90;99.90
1221;DHT22;600;48.044;7.878;2022-08-03T08:39:34;25.00;99.90
1221;DHT22;600;48.044;7.878;2022-08-03T08:42:01;25.00;99.90
1221;DHT22;600;48.044;7.878;2022-08-03T08:44:29;25.10;99.90
1221;DHT22;600;48.044;7.878;2022-08-03T08:46:56;25.10;99.90
1221;DHT22;600;48.044;7.878;2022-08-03T08:49:28;25.10;99.90
1221;DHT22;600;48.044;7.878;2022-08-03T08:51:55;25.20;99.90
1221;DHT22;600;48.044;7.878;2022-08-03T08:54:24;25.20;99.90
1221;DHT22;600;48.044;7.878;2022-08-03T08:56:52;25.30;99.90
1221;DHT22;600;48.044;7.878;2022-08-03T08:59:21;25.30;99.90
1221;DHT22;600;48.044;7.878;2022-08-03T09:01:50;25.40;99.90
1221;DHT22;600;48.044;7.878;2022-08-03T09:04:22;25.50;99.90
1221;DHT22;600;48.044;7.878;2022-08-03T09:06:49;25.50;99.90
1221;DHT22;600;48.044;7.878;2022-08-03T09:09:16;25.50;99.90
1221;DHT22;600;48.044;7.878;2022-08-03T09:11:42;25.60;99.90
1221;DHT22;600;48.044;7.878;2022-08-03T09:14:09;25.60;99.90
1221;DHT22;600;48.044;7.878;2022-08-03T09:16:36;25.70;99.90
1221;DHT22;600;48.044;7.878;2022-08-03T09:19:12;25.70;99.90
1221;DHT22;600;48.044;7.878;2022-08-03T09:21:39;25.80;99.90
1221;DHT22;600;48.044;7.878;2022-08-03T09:24:06;25.80;99.90
1221;DHT22;600;48.044;7.878;2022-08-03T09:26:35;25.80;99.90
1221;DHT22;600;48.044;7.878;2022-08-03T09:29:04;25.90;99.90
1221;DHT22;600;48.044;7.878;2022-08-03T09:35:02;26.00;99.90
1221;DHT22;600;48.044;7.878;2022-08-03T09:37:29;26.00;99.90
1221;DHT22;600;48.044;7.878;2022-08-03T09:39:56;26.00;99.90
1221;DHT22;600;48.044;7.878;2022-08-03T09:42:23;26.10;99.90
1221;DHT22;600;48.044;7.878;2022-08-03T09:44:52;26.10;99.90
1221;DHT22;600;48.044;7.878;2022-08-03T09:47:27;26.20;99.60
1221;DHT22;600;48.044;7.878;2022-08-03T09:49:58;26.20;98.20
1221;DHT22;600;48.044;7.878;2022-08-03T09:52:31;26.30;98.00
1221;DHT22;600;48.044;7.878;2022-08-03T09:54:59;26.40;97.10
1221;DHT22;600;48.044;7.878;2022-08-03T09:57:27;26.50;96.60
1221;DHT22;600;48.044;7.878;2022-08-03T10:00:05;26.50;96.40
1221;DHT22;600;48.044;7.878;2022-08-03T10:02:36;26.60;96.50
1221;DHT22;600;48.044;7.878;2022-08-03T10:08:27;26.70;95.70
1221;DHT22;600;48.044;7.878;2022-08-03T10:10:56;26.80;95.80
1221;DHT22;600;48.044;7.878;2022-08-03T10:13:24;26.80;95.30
1221;DHT22;600;48.044;7.878;2022-08-03T10:15:52;26.90;94.80
1221;DHT22;600;48.044;7.878;2022-08-03T10:25:08;27.10;94.20
1221;DHT22;600;48.044;7.878;2022-08-03T10:27:37;27.20;93.90
1221;DHT22;600;48.044;7.878;2022-08-03T10:30:05;27.20;94.10
1221;DHT22;600;48.044;7.878;2022-08-03T10:32:34;27.30;94.30
1221;DHT22;600;48.044;7.878;2022-08-03T10:35:05;27.40;94.00
1221;DHT22;600;48.044;7.878;2022-08-03T10:37:39;27.40;94.10
1221;DHT22;600;48.044;7.878;2022-08-03T10:40:11;27.50;93.50
1221;DHT22;600;48.044;7.878;2022-08-03T10:42:40;27.50;92.60
1221;DHT22;600;48.044;7.878;2022-08-03T10:45:12;27.60;92.50
1221;DHT22;600;48.044;7.878;2022-08-03T10:47:40;27.70;93.00
1221;DHT22;600;48.044;7.878;2022-08-03T10:50:08;27.80;93.30
1221;DHT22;600;48.044;7.878;2022-08-03T10:52:35;27.80;92.70
1221;DHT22;600;48.044;7.878;2022-08-03T11:02:00;28.00;92.20
1221;DHT22;600;48.044;7.878;2022-08-03T11:04:27;28.10;91.60
1221;DHT22;600;48.044;7.878;2022-08-03T11:07:19;28.20;91.50
1221;DHT22;600;48.044;7.878;2022-08-03T11:09:48;28.30;91.70
1221;DHT22;600;48.044;7.878;2022-08-03T11:15:37;28.40;90.10
1221;DHT22;600;48.044;7.878;2022-08-03T11:18:08;28.50;88.30
1221;DHT22;600;48.044;7.878;2022-08-03T11:20:49;28.60;87.10
1221;DHT22;600;48.044;7.878;2022-08-03T11:23:18;28.70;88.40
1221;DHT22;600;48.044;7.878;2022-08-03T11:26:08;28.70;88.90
1221;DHT22;600;48.044;7.878;2022-08-03T11:28:35;28.80;86.80
1221;DHT22;600;48.044;7.878;2022-08-03T11:31:43;29.00;87.60
1221;DHT22;600;48.044;7.878;2022-08-03T11:34:15;29.10;87.30
1221;DHT22;600;48.044;7.878;2022-08-03T11:37:20;29.20;86.30
1221;DHT22;600;48.044;7.878;2022-08-03T11:39:51;29.30;87.80
1221;DHT22;600;48.044;7.878;2022-08-03T11:42:40;29.40;87.60
1221;DHT22;600;48.044;7.878;2022-08-03T11:45:10;29.50;87.00
1221;DHT22;600;48.044;7.878;2022-08-03T11:47:38;29.60;85.80
1221;DHT22;600;48.044;7.878;2022-08-03T11:50:07;29.60;85.60
1221;DHT22;600;48.044;7.878;2022-08-03T11:52:36;29.70;84.40
1221;DHT22;600;48.044;7.878;2022-08-03T11:55:09;29.80;82.20
1221;DHT22;600;48.044;7.878;2022-08-03T11:57:36;29.90;83.20
1221;DHT22;600;48.044;7.878;2022-08-03T12:00:19;30.00;80.30
1221;DHT22;600;48.044;7.878;2022-08-03T12:02:56;30.10;80.80
1221;DHT22;600;48.044;7.878;2022-08-03T12:05:52;30.20;81.00
1221;DHT22;600;48.044;7.878;2022-08-03T12:08:30;30.40;81.30
1221;DHT22;600;48.044;7.878;2022-08-03T12:10:59;30.50;83.80
1221;DHT22;600;48.044;7.878;2022-08-03T12:13:26;30.60;81.10
1221;DHT22;600;48.044;7.878;2022-08-03T12:16:01;30.80;81.30
1221;DHT22;600;48.044;7.878;2022-08-03T12:18:28;30.90;81.20
1221;DHT22;600;48.044;7.878;2022-08-03T12:21:04;31.00;80.70
1221;DHT22;600;48.044;7.878;2022-08-03T12:23:31;31.10;79.20
1221;DHT22;600;48.044;7.878;2022-08-03T12:26:01;31.20;75.10
1221;DHT22;600;48.044;7.878;2022-08-03T12:28:28;31.30;75.30
1221;DHT22;600;48.044;7.878;2022-08-03T12:31:00;31.40;75.10
1221;DHT22;600;48.044;7.878;2022-08-03T12:33:30;31.50;77.80
1221;DHT22;600;48.044;7.878;2022-08-03T12:36:06;31.60;76.80
1221;DHT22;600;48.044;7.878;2022-08-03T12:38:35;31.80;75.50
1221;DHT22;600;48.044;7.878;2022-08-03T12:41:05;31.80;71.40
1221;DHT22;600;48.044;7.878;2022-08-03T12:43:33;32.00;74.30
1221;DHT22;600;48.044;7.878;2022-08-03T12:46:07;32.20;75.30
1221;DHT22;600;48.044;7.878;2022-08-03T12:48:34;32.30;72.20
1221;DHT22;600;48.044;7.878;2022-08-03T12:51:09;32.50;71.40
1221;DHT22;600;48.044;7.878;2022-08-03T12:53:36;32.60;68.50
1221;DHT22;600;48.044;7.878;2022-08-03T12:56:03;32.80;68.80
1221;DHT22;600;48.044;7.878;2022-08-03T12:58:32;32.90;67.90
1221;DHT22;600;48.044;7.878;2022-08-03T13:00:59;33.10;67.60
1221;DHT22;600;48.044;7.878;2022-08-03T13:03:26;33.30;67.50
1221;DHT22;600;48.044;7.878;2022-08-03T13:05:53;33.50;65.10
1221;DHT22;600;48.044;7.878;2022-08-03T13:08:24;33.60;66.30
1221;DHT22;600;48.044;7.878;2022-08-03T13:10:52;33.80;64.60
1221;DHT22;600;48.044;7.878;2022-08-03T13:13:37;34.00;64.70
1221;DHT22;600;48.044;7.878;2022-08-03T13:16:04;34.20;65.40
1221;DHT22;600;48.044;7.878;2022-08-03T13:18:30;34.40;61.40
1221;DHT22;600;48.044;7.878;2022-08-03T13:20:57;34.60;62.00
1221;DHT22;600;48.044;7.878;2022-08-03T13:23:26;34.70;61.50
1221;DHT22;600;48.044;7.878;2022-08-03T13:25:53;34.70;58.50
1221;DHT22;600;48.044;7.878;2022-08-03T13:28:19;34.90;59.50
1221;DHT22;600;48.044;7.878;2022-08-03T13:30:46;35.10;61.20
1221;DHT22;600;48.044;7.878;2022-08-03T13:33:13;35.10;61.10
1221;DHT22;600;48.044;7.878;2022-08-03T13:35:40;35.10;60.90
1221;DHT22;600;48.044;7.878;2022-08-03T13:38:10;35.10;60.20
1221;DHT22;600;48.044;7.878;2022-08-03T13:40:38;35.20;61.10
1221;DHT22;600;48.044;7.878;2022-08-03T13:43:05;35.20;60.00
1221;DHT22;600;48.044;7.878;2022-08-03T13:45:32;35.30;60.90
1221;DHT22;600;48.044;7.878;2022-08-03T13:47:59;35.20;59.40
1221;DHT22;600;48.044;7.878;2022-08-03T13:50:26;35.30;61.20
1221;DHT22;600;48.044;7.878;2022-08-03T13:52:53;35.30;61.30
1221;DHT22;600;48.044;7.878;2022-08-03T13:55:20;35.30;59.80
1221;DHT22;600;48.044;7.878;2022-08-03T13:57:48;35.20;59.30
1221;DHT22;600;48.044;7.878;2022-08-03T14:00:16;35.30;59.00
1221;DHT22;600;48.044;7.878;2022-08-03T14:02:43;35.30;58.90
1221;DHT22;600;48.044;7.878;2022-08-03T14:05:11;35.40;58.60
1221;DHT22;600;48.044;7.878;2022-08-03T14:07:37;35.40;58.30
1221;DHT22;600;48.044;7.878;2022-08-03T14:10:05;35.50;57.20
1221;DHT22;600;48.044;7.878;2022-08-03T14:12:32;35.70;57.30
1221;DHT22;600;48.044;7.878;2022-08-03T14:15:00;35.80;51.90
1221;DHT22;600;48.044;7.878;2022-08-03T14:17:27;35.90;54.10
1221;DHT22;600;48.044;7.878;2022-08-03T14:19:53;36.20;55.70
1221;DHT22;600;48.044;7.878;2022-08-03T14:22:20;36.30;55.90
1221;DHT22;600;48.044;7.878;2022-08-03T14:24:47;36.30;55.90
1221;DHT22;600;48.044;7.878;2022-08-03T14:27:14;36.30;55.60
1221;DHT22;600;48.044;7.878;2022-08-03T14:29:40;36.40;55.00
1221;DHT22;600;48.044;7.878;2022-08-03T14:32:14;36.40;55.40
1221;DHT22;600;48.044;7.878;2022-08-03T14:34:41;36.40;55.00
1221;DHT22;600;48.044;7.878;2022-08-03T14:37:08;36.60;50.80
1221;DHT22;600;48.044;7.878;2022-08-03T14:39:34;36.90;50.10
1221;DHT22;600;48.044;7.878;2022-08-03T14:42:01;37.20;51.60
1221;DHT22;600;48.044;7.878;2022-08-03T14:44:28;37.50;46.60
1221;DHT22;600;48.044;7.878;2022-08-03T14:46:55;37.70;46.70
1221;DHT22;600;48.044;7.878;2022-08-03T14:49:23;37.90;41.50
1221;DHT22;600;48.044;7.878;2022-08-03T14:51:50;38.20;47.40
1221;DHT22;600;48.044;7.878;2022-08-03T14:54:17;38.40;46.70
1221;DHT22;600;48.044;7.878;2022-08-03T14:56:44;38.70;43.40
